createdAt,value
2023-01-25T00:01:44.281Z,13.50
2023-01-25T00:04:12.342Z,13.37
2023-01-25T00:06:40.359Z,13.30
2023-01-25T00:09:08.301Z,13.67
2023-01-25T00:11:37.651Z,14.03
2023-01-25T00:14:06.530Z,13.83
2023-01-25T00:16:34.781Z,13.23
2023-01-25T00:19:04.239Z,13.90
2023-01-25T00:21:32.223Z,13.00
2023-01-25T00:24:00.260Z,13.90
2023-01-25T00:26:30.830Z,13.57
2023-01-25T00:28:58.857Z,13.07
2023-01-25T00:31:37.796Z,13.83
2023-01-25T00:34:39.714Z,12.83
2023-01-25T00:37:19.283Z,12.77
2023-01-25T00:39:47.286Z,13.50
2023-01-25T00:42:15.875Z,13.83
2023-01-25T00:44:46.720Z,13.00
2023-01-25T00:47:15.135Z,12.63
2023-01-25T00:49:46.002Z,12.77
2023-01-25T00:52:14.774Z,13.03
2023-01-25T00:54:43.164Z,13.07
2023-01-25T00:57:11.267Z,13.27
2023-01-25T00:59:44.301Z,12.50
2023-01-25T01:02:12.693Z,13.17
2023-01-25T01:04:40.731Z,13.43
2023-01-25T01:07:15.202Z,12.40
2023-01-25T01:09:43.175Z,13.53
2023-01-25T01:12:11.228Z,12.40
2023-01-25T01:14:39.281Z,12.90
2023-01-25T01:17:07.304Z,12.30
2023-01-25T01:19:35.377Z,12.50
2023-01-25T01:22:03.533Z,12.77
2023-01-25T01:24:33.004Z,12.10
2023-01-25T01:27:00.962Z,12.53
2023-01-25T01:29:28.899Z,12.23
2023-01-25T01:31:57.310Z,12.70
2023-01-25T01:34:27.171Z,12.93
2023-01-25T01:36:55.947Z,11.83
2023-01-25T01:39:24.564Z,12.37
2023-01-25T01:41:54.488Z,12.10
2023-01-25T01:44:43.393Z,12.50
2023-01-25T01:47:16.603Z,12.40
2023-01-25T01:49:48.493Z,12.37
2023-01-25T01:52:21.148Z,12.13
2023-01-25T01:54:54.232Z,12.77
2023-01-25T01:57:29.091Z,11.70
2023-01-25T02:00:01.575Z,12.60
2023-01-25T02:02:41.841Z,12.43
2023-01-25T02:05:18.492Z,12.87
2023-01-25T02:07:50.171Z,13.10
2023-01-25T02:10:21.963Z,11.93
2023-01-25T02:12:53.826Z,11.90
2023-01-25T02:15:21.946Z,12.50
2023-01-25T02:17:50.876Z,12.37
2023-01-25T02:20:24.359Z,12.80
2023-01-25T02:23:00.042Z,12.63
2023-01-25T02:25:30.079Z,12.07
2023-01-25T02:28:02.874Z,12.37
2023-01-25T02:30:31.798Z,12.17
2023-01-25T02:32:59.795Z,12.30
2023-01-25T02:35:40.092Z,12.43
2023-01-25T02:38:09.300Z,12.40
2023-01-25T02:40:45.448Z,12.33
2023-01-25T02:43:15.511Z,11.90
2023-01-25T02:45:46.964Z,11.80
2023-01-25T02:48:15.565Z,12.07
2023-01-25T02:50:43.968Z,12.60
2023-01-25T02:53:12.997Z,12.60
2023-01-25T02:55:42.392Z,11.50
2023-01-25T02:58:10.344Z,12.40
2023-01-25T03:00:38.323Z,11.27
2023-01-25T03:03:06.395Z,12.07
2023-01-25T03:05:35.206Z,11.97
2023-01-25T03:08:03.540Z,11.67
2023-01-25T03:10:31.605Z,12.47
2023-01-25T03:13:00.977Z,12.00
2023-01-25T03:15:29.213Z,11.20
2023-01-25T03:17:58.110Z,11.33
2023-01-25T03:20:26.107Z,12.00
2023-01-25T03:22:54.110Z,12.00
2023-01-25T03:25:23.799Z,12.27
2023-01-25T03:28:01.182Z,12.40
2023-01-25T03:30:29.494Z,11.80
2023-01-25T03:32:57.646Z,11.60
2023-01-25T03:35:25.816Z,11.63
2023-01-25T03:37:55.010Z,11.43
2023-01-25T03:40:23.015Z,11.57
2023-01-25T03:42:53.525Z,11.53
2023-01-25T03:45:22.943Z,12.43
2023-01-25T03:47:51.479Z,11.03
2023-01-25T03:50:20.770Z,11.33
2023-01-25T03:52:53.098Z,11.97
2023-01-25T03:55:21.189Z,11.80
2023-01-25T03:57:50.172Z,12.00
2023-01-25T04:00:20.032Z,11.73
2023-01-25T04:02:56.740Z,11.73
2023-01-25T04:05:24.788Z,11.53
2023-01-25T04:07:52.862Z,13.40
2023-01-25T04:10:29.670Z,12.03
2023-01-25T04:12:57.719Z,11.07
2023-01-25T04:15:25.805Z,11.10
2023-01-25T04:17:57.246Z,11.17
2023-01-25T04:20:25.598Z,11.27
2023-01-25T04:22:55.535Z,11.63
2023-01-25T04:25:28.372Z,11.43
2023-01-25T04:27:56.538Z,11.07
2023-01-25T04:30:25.391Z,11.10
2023-01-25T04:32:54.701Z,11.13
2023-01-25T04:35:28.807Z,11.07
2023-01-25T04:37:57.730Z,10.60
2023-01-25T04:40:29.682Z,10.17
2023-01-25T04:42:57.827Z,11.20
2023-01-25T04:45:30.520Z,9.90
2023-01-25T04:48:03.153Z,11.03
2023-01-25T04:50:34.628Z,9.87
2023-01-25T04:53:02.858Z,9.33
2023-01-25T04:55:33.741Z,8.77
2023-01-25T04:58:02.855Z,10.20
2023-01-25T05:00:32.343Z,9.50
2023-01-25T05:03:01.875Z,10.40
2023-01-25T05:05:29.929Z,9.87
2023-01-25T05:08:00.904Z,9.40
2023-01-25T05:10:30.413Z,9.63
2023-01-25T05:13:18.625Z,8.60
2023-01-25T05:15:47.763Z,9.53
2023-01-25T05:18:15.669Z,9.43
2023-01-25T05:20:44.287Z,9.53
2023-01-25T05:23:14.512Z,9.97
2023-01-25T05:26:01.894Z,9.93
2023-01-25T05:28:33.339Z,10.10
2023-01-25T05:31:17.620Z,9.47
2023-01-25T05:33:45.544Z,9.60
2023-01-25T05:36:13.595Z,9.43
2023-01-25T05:38:44.464Z,8.53
2023-01-25T05:41:14.179Z,9.93
2023-01-25T05:43:42.277Z,8.93
2023-01-25T05:46:11.117Z,8.73
2023-01-25T05:48:39.517Z,9.20
2023-01-25T05:51:07.809Z,11.00
2023-01-25T05:53:35.878Z,9.73
2023-01-25T05:56:10.269Z,9.00
2023-01-25T05:58:38.412Z,8.93
2023-01-25T06:01:07.860Z,8.53
2023-01-25T06:03:47.023Z,8.93
2023-01-25T06:06:15.599Z,10.33
2023-01-25T06:08:44.775Z,10.17
2023-01-25T06:11:16.181Z,9.80
2023-01-25T06:13:47.895Z,9.53
2023-01-25T06:16:16.427Z,8.23
2023-01-25T06:18:44.989Z,14.90
2023-01-25T06:21:23.726Z,9.20
2023-01-25T06:23:51.653Z,11.17
2023-01-25T06:26:21.369Z,8.80
2023-01-25T06:28:49.276Z,9.80
2023-01-25T06:31:18.874Z,9.07
2023-01-25T06:33:50.196Z,10.13
2023-01-25T06:36:21.259Z,9.07
2023-01-25T06:38:50.859Z,8.60
2023-01-25T06:41:19.199Z,8.93
2023-01-25T06:43:50.912Z,8.47
2023-01-25T06:46:19.417Z,8.67
2023-01-25T06:48:47.350Z,8.60
2023-01-25T06:51:16.258Z,8.83
2023-01-25T06:53:46.437Z,8.30
2023-01-25T06:56:17.579Z,10.13
2023-01-25T06:58:46.154Z,9.00
2023-01-25T07:01:19.643Z,8.60
2023-01-25T07:03:49.900Z,8.07
2023-01-25T07:06:18.183Z,8.53
2023-01-25T07:08:46.597Z,8.67
2023-01-25T07:11:15.106Z,8.87
2023-01-25T07:13:45.566Z,9.30
2023-01-25T07:16:16.836Z,8.70
2023-01-25T07:18:45.101Z,9.63
2023-01-25T07:21:15.733Z,8.83
2023-01-25T07:23:44.794Z,24.63
2023-01-25T07:26:17.819Z,16.07
2023-01-25T07:28:46.853Z,9.03
2023-01-25T07:31:16.877Z,22.20
2023-01-25T07:33:45.274Z,8.67
2023-01-25T07:36:13.781Z,11.33
2023-01-25T07:38:41.702Z,7.67
2023-01-25T07:41:09.656Z,7.23
2023-01-25T07:43:37.538Z,7.90
2023-01-25T07:46:07.469Z,7.67
2023-01-25T07:48:36.691Z,8.80
2023-01-25T07:51:13.038Z,9.03
2023-01-25T07:53:41.478Z,8.00
2023-01-25T07:56:10.471Z,9.50
2023-01-25T07:58:38.589Z,9.93
2023-01-25T08:01:09.950Z,8.07
2023-01-25T08:03:39.629Z,8.30
2023-01-25T08:06:09.026Z,8.13
2023-01-25T08:08:38.776Z,7.60
2023-01-25T08:11:11.163Z,8.37
2023-01-25T08:13:39.142Z,7.87
2023-01-25T08:16:07.333Z,9.60
2023-01-25T08:18:36.088Z,8.63
2023-01-25T08:21:06.661Z,9.43
2023-01-25T08:23:34.595Z,8.17
2023-01-25T08:26:06.506Z,8.10
2023-01-25T08:28:35.663Z,7.57
2023-01-25T08:31:08.008Z,7.97
2023-01-25T08:33:36.199Z,7.77
2023-01-25T08:36:04.606Z,7.37
2023-01-25T08:38:33.989Z,7.80
2023-01-25T08:41:06.637Z,7.53
2023-01-25T08:43:35.593Z,6.97
2023-01-25T08:46:04.020Z,7.77
2023-01-25T08:48:32.043Z,7.33
2023-01-25T08:51:00.139Z,7.10
2023-01-25T08:53:29.053Z,8.33
2023-01-25T08:56:03.116Z,7.27
2023-01-25T08:58:31.754Z,8.83
2023-01-25T09:01:04.252Z,29.43
2023-01-25T09:03:32.508Z,8.07
2023-01-25T09:06:00.526Z,7.90
2023-01-25T09:08:28.453Z,7.33
2023-01-25T09:11:01.209Z,8.20
2023-01-25T09:13:29.252Z,7.13
2023-01-25T09:16:00.896Z,8.13
2023-01-25T09:18:29.542Z,7.37
2023-01-25T09:20:57.505Z,7.53
2023-01-25T09:23:26.841Z,7.53
2023-01-25T09:25:59.557Z,7.47
2023-01-25T09:28:29.702Z,7.70
2023-01-25T09:31:18.877Z,8.03
2023-01-25T09:34:03.719Z,8.33
2023-01-25T09:36:31.603Z,8.07
2023-01-25T09:38:59.884Z,7.20
2023-01-25T09:41:47.427Z,7.97
2023-01-25T09:44:31.861Z,7.53
2023-01-25T09:47:02.896Z,7.67
2023-01-25T09:49:44.133Z,7.63
2023-01-25T09:52:30.045Z,7.93
2023-01-25T09:54:58.775Z,7.93
2023-01-25T09:57:34.287Z,8.07
2023-01-25T10:00:08.481Z,8.27
2023-01-25T10:02:45.228Z,7.53
2023-01-25T10:05:17.805Z,8.13
2023-01-25T10:07:55.882Z,7.93
2023-01-25T10:10:29.122Z,7.87
2023-01-25T10:12:58.362Z,7.60
2023-01-25T10:15:33.222Z,8.43
2023-01-25T10:18:06.456Z,7.90
2023-01-25T10:20:41.674Z,8.63
2023-01-25T10:23:28.125Z,9.37
2023-01-25T10:25:59.573Z,9.03
2023-01-25T10:28:40.631Z,8.33
2023-01-25T10:31:17.491Z,8.97
2023-01-25T10:33:47.265Z,7.77
2023-01-25T10:36:17.145Z,8.67
2023-01-25T10:38:47.253Z,8.43
2023-01-25T10:41:20.856Z,9.03
2023-01-25T10:44:10.096Z,9.70
2023-01-25T10:46:41.745Z,9.67
2023-01-25T10:49:22.718Z,10.57
2023-01-25T10:51:50.933Z,13.33
2023-01-25T10:54:18.803Z,14.63
2023-01-25T10:56:47.780Z,10.20
2023-01-25T10:59:21.604Z,8.80
2023-01-25T11:01:49.640Z,8.90
2023-01-25T11:04:33.186Z,9.43
2023-01-25T11:07:03.610Z,11.93
2023-01-25T11:09:40.937Z,10.53
2023-01-25T11:12:19.571Z,10.13
2023-01-25T11:14:53.338Z,9.37
2023-01-25T11:17:31.640Z,9.40
2023-01-25T11:20:17.363Z,10.67
2023-01-25T11:22:54.006Z,12.13
2023-01-25T11:25:33.546Z,11.10
2023-01-25T11:28:12.792Z,10.27
2023-01-25T11:30:42.115Z,14.40
2023-01-25T11:33:12.612Z,13.57
2023-01-25T11:35:53.601Z,19.63
2023-01-25T11:38:24.702Z,11.90
2023-01-25T11:40:58.577Z,12.33
2023-01-25T11:43:44.368Z,10.27
2023-01-25T11:46:26.308Z,10.07
2023-01-25T11:49:09.893Z,10.90
2023-01-25T11:51:44.275Z,10.03
2023-01-25T11:54:36.667Z,11.70
2023-01-25T11:57:13.285Z,12.70
2023-01-25T12:00:03.588Z,11.23
2023-01-25T12:03:05.585Z,15.70
2023-01-25T12:05:44.691Z,10.10
2023-01-25T12:08:38.763Z,9.97
2023-01-25T12:11:13.980Z,13.03
2023-01-25T12:13:51.323Z,14.87
2023-01-25T12:16:44.750Z,10.33
2023-01-25T12:19:35.222Z,9.53
2023-01-25T12:22:30.069Z,11.27
2023-01-25T12:25:03.949Z,10.30
2023-01-25T12:27:46.327Z,10.20
2023-01-25T12:30:19.714Z,9.63
2023-01-25T12:32:59.488Z,10.83
2023-01-25T12:35:36.924Z,10.63
2023-01-25T12:38:11.835Z,10.10
2023-01-25T12:40:49.875Z,10.27
2023-01-25T12:43:22.707Z,10.07
2023-01-25T12:45:52.403Z,10.43
2023-01-25T12:48:24.973Z,10.53
2023-01-25T12:50:57.234Z,10.37
2023-01-25T12:53:28.542Z,11.20
2023-01-25T12:55:58.571Z,10.10
2023-01-25T12:58:38.177Z,9.97
2023-01-25T13:01:13.984Z,10.50
2023-01-25T13:04:00.060Z,10.50
2023-01-25T13:06:40.364Z,10.90
2023-01-25T13:09:14.996Z,10.33
2023-01-25T13:11:44.634Z,10.20
2023-01-25T13:14:30.370Z,9.63
2023-01-25T13:17:13.416Z,9.97
2023-01-25T13:19:45.359Z,10.30
2023-01-25T13:22:35.391Z,10.17
2023-01-25T13:25:20.731Z,10.67
2023-01-25T13:27:48.776Z,11.70
2023-01-25T13:30:32.881Z,10.70
2023-01-25T13:33:07.425Z,10.60
2023-01-25T13:35:40.819Z,11.87
2023-01-25T13:38:38.347Z,12.10
2023-01-25T13:41:12.026Z,12.33
2023-01-25T13:43:42.604Z,13.23
2023-01-25T13:46:14.768Z,13.73
2023-01-25T13:49:08.073Z,13.33
2023-01-25T13:51:40.309Z,14.83
2023-01-25T13:54:16.866Z,13.20
2023-01-25T13:56:45.529Z,12.60
2023-01-25T13:59:27.494Z,13.13
2023-01-25T14:01:57.093Z,13.20
2023-01-25T14:04:25.350Z,13.70
2023-01-25T14:06:57.922Z,13.43
2023-01-25T14:09:27.471Z,12.63
2023-01-25T14:11:58.287Z,11.10
2023-01-25T14:14:28.573Z,11.50
2023-01-25T14:17:14.073Z,12.37
2023-01-25T14:19:44.406Z,12.80
2023-01-25T14:22:18.032Z,12.57
2023-01-25T14:24:47.368Z,13.60
2023-01-25T14:27:17.073Z,13.03
2023-01-25T14:29:49.642Z,14.20
2023-01-25T14:32:21.659Z,13.20
2023-01-25T14:34:49.572Z,13.40
2023-01-25T14:37:20.821Z,12.67
2023-01-25T14:39:51.916Z,12.93
2023-01-25T14:42:20.280Z,12.67
2023-01-25T14:44:48.681Z,12.60
2023-01-25T14:47:29.902Z,12.63
2023-01-25T14:50:30.604Z,13.70
2023-01-25T14:52:59.803Z,13.10
2023-01-25T14:55:29.557Z,12.50
2023-01-25T14:58:00.664Z,13.37
2023-01-25T15:00:32.054Z,14.37
2023-01-25T15:03:02.147Z,12.77
2023-01-25T15:05:32.981Z,13.63
2023-01-25T15:08:16.507Z,13.63
2023-01-25T15:10:56.912Z,13.50
2023-01-25T15:13:26.196Z,12.43
2023-01-25T15:16:03.445Z,13.83
2023-01-25T15:18:48.401Z,13.00
2023-01-25T15:21:18.616Z,14.23
2023-01-25T15:23:48.298Z,13.43
2023-01-25T15:26:20.247Z,13.17
2023-01-25T15:28:48.937Z,13.97
2023-01-25T15:31:28.120Z,14.37
2023-01-25T15:33:57.007Z,14.13
2023-01-25T15:36:25.301Z,14.90
2023-01-25T15:38:53.473Z,14.70
2023-01-25T15:41:21.759Z,14.50
2023-01-25T15:43:50.286Z,13.90
2023-01-25T15:46:22.662Z,13.23
2023-01-25T15:48:51.677Z,14.27
2023-01-25T15:51:20.100Z,13.97
2023-01-25T15:53:48.057Z,13.90
2023-01-25T15:56:18.856Z,13.53
2023-01-25T15:58:49.999Z,14.40
2023-01-25T16:01:19.878Z,14.07
2023-01-25T16:03:47.815Z,14.63
2023-01-25T16:06:36.558Z,14.97
2023-01-25T16:09:11.977Z,15.17
2023-01-25T16:11:39.915Z,14.77
2023-01-25T16:14:07.907Z,15.47
2023-01-25T16:16:40.858Z,15.73
2023-01-25T16:19:13.144Z,15.13
2023-01-25T16:21:41.612Z,16.63
2023-01-25T16:24:10.642Z,16.03
2023-01-25T16:26:40.717Z,13.83
2023-01-25T16:29:08.690Z,14.07
2023-01-25T16:31:38.059Z,14.10
2023-01-25T16:34:06.794Z,15.00
2023-01-25T16:36:35.557Z,13.50
2023-01-25T16:39:10.207Z,14.70
2023-01-25T16:41:38.746Z,13.27
2023-01-25T16:44:06.634Z,14.43
2023-01-25T16:46:34.850Z,14.13
2023-01-25T16:49:06.804Z,14.43
2023-01-25T16:51:34.807Z,13.73
2023-01-25T16:54:02.720Z,15.10
2023-01-25T16:56:33.357Z,13.40
2023-01-25T16:59:03.690Z,13.63
2023-01-25T17:01:32.121Z,13.60
2023-01-25T17:04:00.117Z,14.23
2023-01-25T17:06:31.774Z,14.20
2023-01-25T17:09:12.637Z,14.53
2023-01-25T17:11:44.918Z,14.73
2023-01-25T17:14:15.654Z,13.37
2023-01-25T17:16:44.978Z,19.13
2023-01-25T17:19:15.382Z,27.93
2023-01-25T17:21:45.026Z,32.40
2023-01-25T17:24:14.529Z,12.83
2023-01-25T17:26:42.972Z,12.70
2023-01-25T17:29:11.223Z,14.23
2023-01-25T17:31:42.013Z,19.13
2023-01-25T17:34:14.911Z,15.97
2023-01-25T17:36:44.675Z,13.77
2023-01-25T17:39:15.343Z,19.17
2023-01-25T17:41:44.096Z,14.40
2023-01-25T17:44:12.691Z,13.60
2023-01-25T17:46:40.747Z,13.30
2023-01-25T17:49:12.233Z,15.20
2023-01-25T17:51:40.502Z,14.07
2023-01-25T17:54:11.458Z,14.23
2023-01-25T17:56:39.899Z,25.37
2023-01-25T17:59:11.401Z,14.30
2023-01-25T18:01:42.509Z,13.17
2023-01-25T18:04:11.011Z,14.30
2023-01-25T18:06:39.156Z,14.13
2023-01-25T18:09:07.695Z,18.57
2023-01-25T18:11:39.960Z,19.87
2023-01-25T18:14:09.509Z,15.30
2023-01-25T18:16:39.678Z,29.37
2023-01-25T18:19:08.358Z,14.83
2023-01-25T18:21:36.787Z,15.47
2023-01-25T18:24:07.059Z,13.30
2023-01-25T18:26:37.996Z,13.53
2023-01-25T18:29:32.590Z,13.97
2023-01-25T18:32:00.704Z,15.50
2023-01-25T18:34:28.637Z,14.03
2023-01-25T18:36:59.237Z,13.70
2023-01-25T18:39:28.150Z,13.60
2023-01-25T18:41:57.454Z,13.57
2023-01-25T18:44:25.591Z,15.03
2023-01-25T18:46:53.465Z,12.83
2023-01-25T18:49:21.448Z,13.37
2023-01-25T18:52:08.457Z,15.70
2023-01-25T18:54:37.228Z,12.57
2023-01-25T18:57:06.704Z,11.77
2023-01-25T18:59:34.690Z,13.80
2023-01-25T19:02:02.670Z,11.77
2023-01-25T19:04:30.799Z,14.00
2023-01-25T19:07:01.337Z,14.97
2023-01-25T19:09:30.136Z,13.47
2023-01-25T19:11:58.462Z,19.53
2023-01-25T19:14:27.807Z,13.13
2023-01-25T19:16:55.698Z,16.10
2023-01-25T19:19:23.865Z,21.33
2023-01-25T19:21:51.847Z,20.13
2023-01-25T19:24:20.828Z,19.30
2023-01-25T19:26:48.818Z,21.47
2023-01-25T19:29:16.988Z,14.43
2023-01-25T19:31:46.367Z,13.83
2023-01-25T19:34:14.392Z,14.17
2023-01-25T19:36:45.711Z,14.40
2023-01-25T19:39:14.403Z,16.30
2023-01-25T19:41:42.420Z,14.63
2023-01-25T19:44:12.560Z,15.57
2023-01-25T19:46:40.905Z,13.77
2023-01-25T19:49:13.132Z,13.17
2023-01-25T19:51:44.351Z,13.80
2023-01-25T19:54:16.703Z,14.97
2023-01-25T19:56:46.452Z,16.63
2023-01-25T19:59:15.817Z,13.77
2023-01-25T20:01:45.184Z,13.40
2023-01-25T20:04:19.565Z,13.73
2023-01-25T20:06:48.168Z,14.00
2023-01-25T20:09:17.329Z,12.93
2023-01-25T20:11:46.102Z,13.20
2023-01-25T20:14:15.133Z,15.13
2023-01-25T20:16:43.128Z,13.40
2023-01-25T20:19:12.779Z,13.87
2023-01-25T20:21:42.094Z,13.20
2023-01-25T20:24:10.565Z,13.13
2023-01-25T20:26:42.906Z,12.87
2023-01-25T20:29:12.098Z,13.83
2023-01-25T20:31:41.712Z,12.93
2023-01-25T20:34:12.743Z,15.53
2023-01-25T20:36:42.999Z,14.43
2023-01-25T20:39:13.435Z,15.23
2023-01-25T20:41:41.862Z,15.27
2023-01-25T20:44:11.332Z,15.13
2023-01-25T20:46:40.492Z,16.00
2023-01-25T20:49:12.623Z,16.17
2023-01-25T20:51:42.880Z,15.77
2023-01-25T20:54:11.225Z,16.17
2023-01-25T20:56:39.567Z,16.17
2023-01-25T20:59:07.698Z,16.97
2023-01-25T21:01:37.041Z,17.77
2023-01-25T21:04:06.889Z,17.60
2023-01-25T21:06:35.580Z,17.03
2023-01-25T21:09:05.828Z,18.30
2023-01-25T21:11:34.617Z,19.17
2023-01-25T21:14:02.688Z,18.87
2023-01-25T21:16:31.078Z,16.83
2023-01-25T21:19:00.565Z,16.40
2023-01-25T21:21:30.195Z,15.87
2023-01-25T21:24:02.363Z,15.77
2023-01-25T21:26:33.153Z,16.57
2023-01-25T21:29:06.260Z,16.40
2023-01-25T21:31:35.936Z,16.70
2023-01-25T21:34:04.833Z,15.47
2023-01-25T21:36:33.204Z,17.13
2023-01-25T21:39:01.118Z,17.93
2023-01-25T21:41:33.455Z,16.80
2023-01-25T21:44:20.079Z,18.13
2023-01-25T21:49:55.885Z,17.90
2023-01-25T21:52:23.811Z,18.87
2023-01-25T21:54:51.695Z,17.37
2023-01-25T21:57:21.041Z,17.83
2023-01-25T21:59:49.030Z,17.53
2023-01-25T22:02:17.071Z,17.53
2023-01-25T22:04:44.986Z,19.57
2023-01-25T22:07:13.001Z,17.73
2023-01-25T22:09:40.918Z,16.97
2023-01-25T22:12:09.260Z,17.47
2023-01-25T22:14:38.563Z,17.20
2023-01-25T22:17:06.448Z,17.90
2023-01-25T22:19:34.369Z,17.03
2023-01-25T22:22:02.328Z,18.03
2023-01-25T22:24:30.247Z,19.03
2023-01-25T22:27:09.820Z,18.33
2023-01-25T22:29:39.051Z,17.27
2023-01-25T22:32:07.102Z,17.47
2023-01-25T22:34:35.033Z,17.37
2023-01-25T22:37:02.921Z,17.20
2023-01-25T22:39:30.827Z,17.63
2023-01-25T22:41:58.791Z,17.83
2023-01-25T22:44:26.662Z,17.70
2023-01-25T22:46:55.920Z,17.30
2023-01-25T22:49:23.834Z,17.87
2023-01-25T22:51:51.704Z,17.00
2023-01-25T22:54:19.796Z,16.90
2023-01-25T22:56:47.676Z,18.57
2023-01-25T22:59:19.070Z,19.73
2023-01-25T23:01:47.146Z,18.40
2023-01-25T23:04:16.460Z,17.93
2023-01-25T23:06:44.436Z,19.10
2023-01-25T23:09:12.566Z,17.53
2023-01-25T23:11:40.441Z,17.43
2023-01-25T23:14:29.718Z,17.70
2023-01-25T23:17:17.882Z,17.10
2023-01-25T23:19:46.245Z,16.77
2023-01-25T23:22:14.324Z,16.60
2023-01-25T23:24:43.233Z,17.10
2023-01-25T23:27:12.498Z,17.63
2023-01-25T23:29:40.644Z,19.23
2023-01-25T23:32:08.558Z,17.83
2023-01-25T23:34:39.460Z,18.70
2023-01-25T23:37:08.759Z,18.60
2023-01-25T23:39:36.694Z,18.13
2023-01-25T23:42:05.128Z,17.67
2023-01-25T23:44:33.099Z,18.37
2023-01-25T23:47:01.625Z,15.93
2023-01-25T23:49:29.567Z,17.37
2023-01-25T23:51:57.518Z,17.03
2023-01-25T23:54:27.035Z,17.30
2023-01-25T23:56:58.527Z,16.37
2023-01-25T23:59:26.694Z,16.70
